Time;durP1;ratioP1;P1;durP2;ratioP2;P2;SDS_P1;SDS_P2;PMS_P1;PMS_P2;Temp;Humidity;BMP_temperature;BMP_pressure;BME280_temperature;BME280_humidity;BME280_pressure;Samples;Min_cycle;Max_cycle;Signal;HPM_P1;HPM_P2
2023/08/09 00:01:21;;;;;;;;;;;;;;;;;;5051666;28;20389;-68
2023/08/09 00:04:26;;;;;;;;;;;;;;;;;;5072016;28;20269;-71
2023/08/09 00:09:47;;;;;;;;;;;;;;;;;;5111916;27;19923;-70
2023/08/09 00:14:34;;;;;;;;;;;;;;;;;;5112197;27;19922;-68
2023/08/09 00:18:07;;;;;;;;;;;;;;;;;;5174009;27;20002;-68
2023/08/09 00:20:33;;;;;;;;;;;;;;;;;;5173318;27;19922;-69
2023/08/09 00:23:56;;;;;;;;;;;;;;;;;;5132643;27;20295;-68
2023/08/09 00:26:21;;;;;;;;;;;;;;;;;;5131792;28;20026;-68
2023/08/09 00:28:47;;;;;;;;;;;;;;;;;;5113822;28;20312;-69
2023/08/09 00:34:17;;;;;;;;;;;;;;;;;;5091277;27;19916;-69
2023/08/09 00:39:59;;;;;;;;;;;;;;;;;;5091492;27;19916;-69
2023/08/09 00:42:25;;;;;;;;;;;;;;;;;;5091046;28;20022;-69
2023/08/09 00:44:51;;;;;;;;;;;;;;;;;;5091461;28;19915;-69
2023/08/09 00:47:17;;;;;;;;;;;;;;;;;;5089598;28;19908;-69
2023/08/09 00:52:00;;;;;;;;;;;;;;;;;;5091448;27;19919;-69
2023/08/09 00:54:26;;;;;;;;;;;;;;;;;;5089707;28;19999;-69
2023/08/09 00:58:18;;;;;;;;;;;;;;;;;;5091738;28;20410;-68
2023/08/09 01:00:44;;;;;;;;;;;;;;;;;;5091391;28;20003;-68
2023/08/09 01:05:05;;;;;;;;;;;;;;;;;;5092154;27;20287;-69
2023/08/09 01:07:32;;;;;;;;;;;;;;;;;;5090149;28;19912;-71
2023/08/09 01:11:04;;;;;;;;;;;;;;;;;;5072060;28;19923;-71
2023/08/09 01:14:31;;;;;;;;;;;;;;;;;;5112366;27;20406;-70
2023/08/09 01:16:57;;;;;;;;;;;;;;;;;;5111516;28;19994;-70
2023/08/09 01:19:23;;;;;;;;;;;;;;;;;;5110429;28;19908;-69
2023/08/09 01:21:49;;;;;;;;;;;;;;;;;;5110310;28;19912;-70
2023/08/09 01:25:15;;;;;;;;;;;;;;;;;;5091403;28;19918;-70
2023/08/09 01:30:41;;;;;;;;;;;;;;;;;;5071010;28;19925;-69
2023/08/09 01:33:07;;;;;;;;;;;;;;;;;;5071139;28;20007;-68
2023/08/09 01:36:57;;;;;;;;;;;;;;;;;;5111470;27;19922;-68
2023/08/09 01:39:23;;;;;;;;;;;;;;;;;;5111742;28;20010;-69
2023/08/09 01:41:49;;;;;;;;;;;;;;;;;;5111670;28;19914;-69
2023/08/09 01:44:15;;;;;;;;;;;;;;;;;;5111585;28;20348;-69
2023/08/09 01:46:41;;;;;;;;;;;;;;;;;;5112168;28;19908;-69
2023/08/09 01:49:06;;;;;;;;;;;;;;;;;;5111595;28;20420;-69
2023/08/09 01:51:32;;;;;;;;;;;;;;;;;;5109812;28;20002;-70
2023/08/09 01:53:58;;;;;;;;;;;;;;;;;;5110098;28;20284;-69
2023/08/09 01:59:05;;;;;;;;;;;;;;;;;;5071077;28;20404;-70
2023/08/09 02:04:28;;;;;;;;;;;;;;;;;;5111944;27;20281;-69
2023/08/09 02:08:06;;;;;;;;;;;;;;;;;;5112293;27;19922;-69
2023/08/09 02:10:32;;;;;;;;;;;;;;;;;;5111743;28;19919;-71
2023/08/09 02:17:40;;;;;;;;;;;;;;;;;;5092090;27;19916;-70
2023/08/09 02:20:06;;;;;;;;;;;;;;;;;;5090987;28;20015;-70
2023/08/09 02:22:32;;;;;;;;;;;;;;;;;;5091351;28;20428;-68
2023/08/09 02:26:08;;;;;;;;;;;;;;;;;;5111951;27;20291;-68
2023/08/09 02:30:16;;;;;;;;;;;;;;;;;;5153199;27;20017;-69
2023/08/09 02:32:42;;;;;;;;;;;;;;;;;;5152594;27;19950;-70
2023/08/09 02:39:43;;;;;;;;;;;;;;;;;;5091024;28;20008;-68
2023/08/09 02:44:58;;;;;;;;;;;;;;;;;;5071722;28;20025;-68
2023/08/09 02:47:24;;;;;;;;;;;;;;;;;;5070756;28;20003;-68
2023/08/09 02:49:50;;;;;;;;;;;;;;;;;;5071690;28;19909;-68
2023/08/09 02:52:16;;;;;;;;;;;;;;;;;;5069819;28;19971;-68
2023/08/09 02:57:06;;;;;;;;;;;;;;;;;;5091873;27;19923;-68
2023/08/09 02:59:32;;;;;;;;;;;;;;;;;;5091362;28;19912;-68
2023/08/09 03:01:58;;;;;;;;;;;;;;;;;;5090938;28;19954;-68
2023/08/09 03:04:24;;;;;;;;;;;;;;;;;;5091554;28;20008;-68
2023/08/09 03:06:50;;;;;;;;;;;;;;;;;;5091207;28;20300;-68
2023/08/09 03:09:16;;;;;;;;;;;;;;;;;;5090755;28;20019;-68
2023/08/09 03:11:42;;;;;;;;;;;;;;;;;;5091127;28;19908;-68
2023/08/09 03:14:09;;;;;;;;;;;;;;;;;;5089868;28;19909;-68
2023/08/09 03:16:35;;;;;;;;;;;;;;;;;;5090563;28;20436;-68
2023/08/09 03:19:03;;;;;;;;;;;;;;;;;;5091055;28;19940;-68
2023/08/09 03:21:29;;;;;;;;;;;;;;;;;;5090980;28;19954;-68
2023/08/09 03:23:55;;;;;;;;;;;;;;;;;;5090539;28;19912;-69
2023/08/09 03:26:21;;;;;;;;;;;;;;;;;;5091404;28;19908;-69
2023/08/09 03:28:47;;;;;;;;;;;;;;;;;;5090863;28;19944;-69
2023/08/09 03:31:13;;;;;;;;;;;;;;;;;;5090340;28;19931;-69
2023/08/09 03:33:39;;;;;;;;;;;;;;;;;;5090846;28;19991;-69
2023/08/09 03:36:05;;;;;;;;;;;;;;;;;;5088906;28;19973;-68
2023/08/09 03:38:31;;;;;;;;;;;;;;;;;;5090625;28;20334;-69
2023/08/09 03:40:57;;;;;;;;;;;;;;;;;;5090572;28;19909;-69
2023/08/09 03:43:23;;;;;;;;;;;;;;;;;;5090245;28;19919;-69
2023/08/09 03:45:49;;;;;;;;;;;;;;;;;;5090519;28;19948;-69
2023/08/09 03:48:15;;;;;;;;;;;;;;;;;;5090804;28;19937;-69
2023/08/09 03:50:41;;;;;;;;;;;;;;;;;;5090028;28;19948;-69
2023/08/09 03:53:07;;;;;;;;;;;;;;;;;;5090333;28;19908;-68
2023/08/09 03:55:33;;;;;;;;;;;;;;;;;;5097860;28;19920;-69
2023/08/09 03:57:59;;;;;;;;;;;;;;;;;;5110348;28;19908;-69
2023/08/09 04:00:26;;;;;;;;;;;;;;;;;;5110725;28;19908;-69
2023/08/09 04:02:52;;;;;;;;;;;;;;;;;;5110510;28;20448;-69
2023/08/09 04:05:19;;;;;;;;;;;;;;;;;;5110308;28;19915;-69
2023/08/09 04:07:45;;;;;;;;;;;;;;;;;;5100683;28;19939;-69
2023/08/09 04:10:12;;;;;;;;;;;;;;;;;;5096844;28;19911;-68
2023/08/09 04:12:38;;;;;;;;;;;;;;;;;;5096418;28;19912;-69
2023/08/09 04:15:04;;;;;;;;;;;;;;;;;;5078518;28;19919;-69
2023/08/09 04:17:31;;;;;;;;;;;;;;;;;;5096636;28;20333;-69
2023/08/09 04:19:57;;;;;;;;;;;;;;;;;;5096242;28;19909;-69
2023/08/09 04:22:23;;;;;;;;;;;;;;;;;;5096515;28;20288;-69
2023/08/09 04:24:50;;;;;;;;;;;;;;;;;;5078329;28;19908;-69
2023/08/09 04:27:16;;;;;;;;;;;;;;;;;;5096021;28;19912;-69
2023/08/09 04:29:41;;;;;;;;;;;;;;;;;;5078306;28;19908;-69
2023/08/09 04:32:07;;;;;;;;;;;;;;;;;;5078240;28;19912;-69
2023/08/09 04:34:33;;;;;;;;;;;;;;;;;;5095885;28;19999;-68
2023/08/09 04:39:31;;;;;;;;;;;;;;;;;;5111829;27;19918;-68
2023/08/09 04:41:57;;;;;;;;;;;;;;;;;;5112266;28;19912;-68
2023/08/09 04:44:23;;;;;;;;;;;;;;;;;;5111680;28;19908;-68
2023/08/09 04:46:49;;;;;;;;;;;;;;;;;;5111296;28;19958;-69
2023/08/09 04:50:06;;;;;;;;;;;;;;;;;;5112111;27;19916;-68
2023/08/09 04:56:23;;;;;;;;;;;;;;;;;;5112614;27;19916;-68
2023/08/09 04:58:49;;;;;;;;;;;;;;;;;;5111811;28;19995;-68
2023/08/09 05:02:20;;;;;;;;;;;;;;;;;;5111487;27;19922;-69
2023/08/09 05:07:08;;;;;;;;;;;;;;;;;;5112329;27;19938;-69
2023/08/09 05:09:34;;;;;;;;;;;;;;;;;;5111393;28;20333;-69
2023/08/09 05:12:21;;;;;;;;;;;;;;;;;;5092131;27;20299;-69
2023/08/09 05:15:54;;;;;;;;;;;;;;;;;;5152787;27;19923;-69
2023/08/09 05:19:12;;;;;;;;;;;;;;;;;;5112211;27;19922;-70
2023/08/09 05:21:38;;;;;;;;;;;;;;;;;;5111427;28;19994;-69
2023/08/09 05:24:04;;;;;;;;;;;;;;;;;;5111659;28;19912;-69
2023/08/09 05:27:50;;;;;;;;;;;;;;;;;;5091897;27;20325;-69
2023/08/09 05:30:16;;;;;;;;;;;;;;;;;;5090984;28;20065;-69
2023/08/09 05:36:00;;;;;;;;;;;;;;;;;;5111993;27;20230;-69
2023/08/09 05:39:53;;;;;;;;;;;;;;;;;;5112134;27;19923;-70
2023/08/09 05:46:29;;;;;;;;;;;;;;;;;;5071546;28;19923;-69
2023/08/09 05:48:55;;;;;;;;;;;;;;;;;;5071232;28;19999;-69
2023/08/09 05:51:21;;;;;;;;;;;;;;;;;;5070762;28;19913;-69
2023/08/09 05:54:35;;;;;;;;;;;;;;;;;;5112213;27;19916;-68
2023/08/09 05:57:01;;;;;;;;;;;;;;;;;;5111375;28;20006;-69
2023/08/09 06:03:52;;;;;;;;;;;;;;;;;;5091836;28;20287;-69
2023/08/09 06:06:18;;;;;;;;;;;;;;;;;;5090083;28;19999;-69
2023/08/09 06:10:37;;;;;;;;;;;;;;;;;;5091597;27;20296;-68
2023/08/09 06:13:44;;;;;;;;;;;;;;;;;;5091507;27;19916;-69
2023/08/09 06:16:10;;;;;;;;;;;;;;;;;;5091344;28;19995;-69
2023/08/09 06:26:19;;;;;;;;;;;;;;;;;;5071320;28;19923;-69
2023/08/09 06:28:45;;;;;;;;;;;;;;;;;;5071277;28;19913;-69
2023/08/09 06:31:11;;;;;;;;;;;;;;;;;;5071030;28;19963;-69
2023/08/09 06:34:43;;;;;;;;;;;;;;;;;;5173780;27;20009;-69
2023/08/09 06:40:48;;;;;;;;;;;;;;;;;;5111284;27;19916;-69
2023/08/09 06:43:14;;;;;;;;;;;;;;;;;;5107647;28;20264;-69
2023/08/09 06:46:39;;;;;;;;;;;;;;;;;;5069975;28;19920;-69
2023/08/09 06:51:23;;;;;;;;;;;;;;;;;;5111005;27;20291;-68
2023/08/09 06:53:49;;;;;;;;;;;;;;;;;;5110596;28;19956;-72
2023/08/09 06:56:15;;;;;;;;;;;;;;;;;;5110015;28;19948;-69
2023/08/09 06:58:41;;;;;;;;;;;;;;;;;;5108682;28;19919;-69
2023/08/09 07:01:25;;;;;;;;;;;;;;;;;;5090825;27;19917;-69
2023/08/09 07:06:11;;;;;;;;;;;;;;;;;;5108993;27;20315;-69
2023/08/09 07:09:11;;;;;;;;;;;;;;;;;;5109366;27;19942;-71
2023/08/09 07:11:37;;;;;;;;;;;;;;;;;;5101538;28;19912;-70
2023/08/09 07:14:03;;;;;;;;;;;;;;;;;;5097119;28;19918;-69
2023/08/09 07:16:29;;;;;;;;;;;;;;;;;;5106681;28;19912;-68
2023/08/09 07:18:55;;;;;;;;;;;;;;;;;;5088970;28;19915;-68
2023/08/09 07:23:21;;;;;;;;;;;;;;;;;;5109090;27;20295;-68
2023/08/09 07:25:47;;;;;;;;;;;;;;;;;;5109549;28;19912;-67
2023/08/09 07:28:13;;;;;;;;;;;;;;;;;;5110439;28;20265;-67
2023/08/09 07:32:43;;;;;;;;;;;;;;;;;;5058904;28;19921;-69
2023/08/09 07:36:15;;;;;;;;;;;;;;;;;;5112488;27;19927;-70
2023/08/09 07:38:41;;;;;;;;;;;;;;;;;;5104972;28;19913;-69
2023/08/09 07:41:07;;;;;;;;;;;;;;;;;;5123928;28;19908;-70
2023/08/09 07:43:33;;;;;;;;;;;;;;;;;;5111351;28;20287;-70
2023/08/09 07:45:59;;;;;;;;;;;;;;;;;;5120098;28;20253;-69
2023/08/09 07:50:50;;;;;;;;;;;;;;;;;;5111185;27;20287;-70
2023/08/09 08:00:40;;;;;;;;;;;;;;;;;;5101279;27;19916;-70
2023/08/09 08:03:06;;;;;;;;;;;;;;;;;;5088963;28;20455;-70
2023/08/09 08:05:32;;;;;;;;;;;;;;;;;;5085567;28;19917;-69
2023/08/09 08:07:58;;;;;;;;;;;;;;;;;;5085801;28;19958;-71
2023/08/09 08:10:25;;;;;;;;;;;;;;;;;;5084887;28;20011;-69
2023/08/09 08:12:51;;;;;;;;;;;;;;;;;;5080329;28;19912;-72
2023/08/09 08:17:12;;;;;;;;;;;;;;;;;;5088620;27;19920;-71
2023/08/09 08:19:43;;;;;;;;;;;;;;;;;;5086851;28;19999;-70
2023/08/09 08:22:09;;;;;;;;;;;;;;;;;;5087234;28;20011;-71
2023/08/09 08:24:35;;;;;;;;;;;;;;;;;;5088922;28;20331;-71
2023/08/09 08:27:01;;;;;;;;;;;;;;;;;;5086918;28;19912;-68
2023/08/09 08:32:48;;;;;;;;;;;;;;;;;;5091036;27;19939;-68
2023/08/09 08:36:11;;;;;;;;;;;;;;;;;;5091584;27;19923;-69
2023/08/09 08:38:37;;;;;;;;;;;;;;;;;;5090790;28;20011;-70
2023/08/09 08:42:53;;;;;;;;;;;;;;;;;;5091235;27;20296;-69
2023/08/09 08:47:10;;;;;;;;;;;;;;;;;;5135853;27;19926;-71
2023/08/09 08:49:36;;;;;;;;;;;;;;;;;;5147426;27;19918;-71
2023/08/09 08:52:02;;;;;;;;;;;;;;;;;;5121375;28;19908;-69
2023/08/09 08:58:06;;;;;;;;;;;;;;;;;;5111765;27;19912;-70
2023/08/09 09:00:32;;;;;;;;;;;;;;;;;;5109636;28;20011;-73
2023/08/09 09:02:58;;;;;;;;;;;;;;;;;;5111193;28;19959;-71
2023/08/09 09:05:24;;;;;;;;;;;;;;;;;;5110924;28;19972;-73
2023/08/09 09:07:50;;;;;;;;;;;;;;;;;;5110854;28;19918;-70
2023/08/09 09:10:16;;;;;;;;;;;;;;;;;;5103777;28;19912;-71
2023/08/09 09:12:43;;;;;;;;;;;;;;;;;;5111133;28;20338;-68
2023/08/09 09:15:09;;;;;;;;;;;;;;;;;;5110896;28;19931;-68
2023/08/09 09:17:35;;;;;;;;;;;;;;;;;;5109201;28;19916;-69
2023/08/09 09:21:11;;;;;;;;;;;;;;;;;;5088556;27;19942;-68
2023/08/09 09:23:37;;;;;;;;;;;;;;;;;;5089278;28;19913;-67
2023/08/09 09:26:03;;;;;;;;;;;;;;;;;;5089127;28;19913;-68
2023/08/09 09:28:29;;;;;;;;;;;;;;;;;;5093602;28;19924;-68
2023/08/09 09:30:55;;;;;;;;;;;;;;;;;;5094580;28;19955;-68
2023/08/09 09:35:42;;;;;;;;;;;;;;;;;;5113309;27;20351;-68
2023/08/09 09:40:23;;;;;;;;;;;;;;;;;;5088847;27;20398;-68
2023/08/09 09:42:48;;;;;;;;;;;;;;;;;;5088758;28;19939;-69
2023/08/09 09:45:14;;;;;;;;;;;;;;;;;;5085805;28;20356;-67
2023/08/09 09:47:41;;;;;;;;;;;;;;;;;;5082591;28;20337;-69
2023/08/09 09:50:07;;;;;;;;;;;;;;;;;;5087379;28;19941;-68
2023/08/09 09:52:33;;;;;;;;;;;;;;;;;;5086048;28;19920;-68
2023/08/09 09:54:59;;;;;;;;;;;;;;;;;;5073813;28;19920;-67
2023/08/09 09:57:25;;;;;;;;;;;;;;;;;;5070597;28;19995;-69
2023/08/09 09:59:51;;;;;;;;;;;;;;;;;;5070591;28;19924;-67
2023/08/09 10:02:17;;;;;;;;;;;;;;;;;;5081789;28;19909;-67
2023/08/09 10:04:44;;;;;;;;;;;;;;;;;;5076924;28;19913;-67
2023/08/09 10:07:10;;;;;;;;;;;;;;;;;;5070518;28;19909;-69
2023/08/09 10:09:36;;;;;;;;;;;;;;;;;;5069329;28;19909;-67
2023/08/09 10:12:03;;;;;;;;;;;;;;;;;;5069604;28;19913;-67
2023/08/09 10:14:29;;;;;;;;;;;;;;;;;;5069350;28;19913;-69
2023/08/09 10:16:55;;;;;;;;;;;;;;;;;;5068015;28;19921;-69
2023/08/09 10:19:22;;;;;;;;;;;;;;;;;;5076718;28;20019;-69
2023/08/09 10:21:50;;;;;;;;;;;;;;;;;;5080125;28;19966;-70
2023/08/09 10:24:18;;;;;;;;;;;;;;;;;;5086870;28;19991;-71
2023/08/09 10:26:46;;;;;;;;;;;;;;;;;;5088629;28;19944;-69
2023/08/09 10:29:44;;;;;;;;;;;;;;;;;;5089360;28;19913;-66
2023/08/09 10:32:56;;;;;;;;;;;;;;;;;;5109115;27;19920;-66
2023/08/09 10:35:23;;;;;;;;;;;;;;;;;;5108975;28;19912;-66
2023/08/09 10:37:49;;;;;;;;;;;;;;;;;;5110813;28;20391;-67
2023/08/09 10:41:25;;;;;;;;;;;;;;;;;;5081072;28;19926;-68
2023/08/09 10:46:13;;;;;;;;;;;;;;;;;;5173070;27;20005;-68
2023/08/09 10:48:39;;;;;;;;;;;;;;;;;;5168032;27;20418;-69
2023/08/09 10:51:05;;;;;;;;;;;;;;;;;;5152746;27;19908;-68
2023/08/09 10:53:31;;;;;;;;;;;;;;;;;;5133818;27;19911;-70
2023/08/09 10:55:59;;;;;;;;;;;;;;;;;;5150645;27;19908;-71
2023/08/09 10:58:25;;;;;;;;;;;;;;;;;;5128768;27;19997;-71
2023/08/09 11:00:51;;;;;;;;;;;;;;;;;;5150077;27;20438;-70
2023/08/09 11:03:17;;;;;;;;;;;;;;;;;;5132688;27;20359;-69
2023/08/09 11:05:44;;;;;;;;;;;;;;;;;;5151535;27;19919;-70
2023/08/09 11:08:10;;;;;;;;;;;;;;;;;;5150206;27;19908;-70
2023/08/09 11:10:36;;;;;;;;;;;;;;;;;;5150489;27;19959;-70
2023/08/09 11:13:04;;;;;;;;;;;;;;;;;;5151158;27;19927;-70
2023/08/09 11:15:30;;;;;;;;;;;;;;;;;;5151537;27;20274;-70
2023/08/09 11:17:56;;;;;;;;;;;;;;;;;;5151592;27;19907;-70
2023/08/09 11:20:22;;;;;;;;;;;;;;;;;;5151630;27;19930;-70
2023/08/09 11:22:48;;;;;;;;;;;;;;;;;;5152100;27;20006;-70
2023/08/09 11:25:14;;;;;;;;;;;;;;;;;;5152126;27;19915;-70
2023/08/09 11:27:40;;;;;;;;;;;;;;;;;;5151899;27;19915;-70
2023/08/09 11:30:06;;;;;;;;;;;;;;;;;;5152121;27;19907;-70
2023/08/09 11:32:32;;;;;;;;;;;;;;;;;;5152073;27;19911;-71
2023/08/09 11:34:58;;;;;;;;;;;;;;;;;;5151652;27;19907;-70
2023/08/09 11:37:25;;;;;;;;;;;;;;;;;;5151977;27;19972;-70
2023/08/09 11:39:51;;;;;;;;;;;;;;;;;;5152184;27;19911;-70
2023/08/09 11:42:17;;;;;;;;;;;;;;;;;;5151642;27;19931;-71
2023/08/09 11:44:43;;;;;;;;;;;;;;;;;;5151643;27;19919;-71
2023/08/09 11:47:10;;;;;;;;;;;;;;;;;;5151862;27;19907;-70
2023/08/09 11:49:36;;;;;;;;;;;;;;;;;;5151280;27;19907;-70
2023/08/09 11:52:02;;;;;;;;;;;;;;;;;;5152028;27;19916;-70
2023/08/09 11:54:28;;;;;;;;;;;;;;;;;;5133202;27;20316;-70
2023/08/09 11:56:54;;;;;;;;;;;;;;;;;;5140964;27;19953;-70
2023/08/09 11:59:20;;;;;;;;;;;;;;;;;;5137752;27;20378;-69
2023/08/09 12:01:46;;;;;;;;;;;;;;;;;;5137908;27;19984;-70
2023/08/09 12:04:13;;;;;;;;;;;;;;;;;;5137145;27;20010;-70
2023/08/09 12:06:39;;;;;;;;;;;;;;;;;;5137540;27;19912;-70
2023/08/09 12:09:05;;;;;;;;;;;;;;;;;;5137603;27;19999;-70
2023/08/09 12:11:32;;;;;;;;;;;;;;;;;;5137079;27;19953;-70
2023/08/09 12:13:59;;;;;;;;;;;;;;;;;;5137629;27;19915;-70
2023/08/09 12:16:25;;;;;;;;;;;;;;;;;;5137038;27;20379;-70
2023/08/09 12:18:51;;;;;;;;;;;;;;;;;;5137381;27;19935;-71
2023/08/09 12:21:17;;;;;;;;;;;;;;;;;;5137403;27;19911;-70
2023/08/09 12:23:43;;;;;;;;;;;;;;;;;;5137125;27;19908;-70
2023/08/09 12:26:09;;;;;;;;;;;;;;;;;;5137257;27;20363;-70
2023/08/09 12:28:35;;;;;;;;;;;;;;;;;;5137364;27;20351;-70
2023/08/09 12:31:01;;;;;;;;;;;;;;;;;;5136808;27;20363;-71
2023/08/09 12:33:27;;;;;;;;;;;;;;;;;;5137463;27;19952;-71
2023/08/09 12:35:53;;;;;;;;;;;;;;;;;;5137062;27;19908;-71
2023/08/09 12:38:19;;;;;;;;;;;;;;;;;;5136697;27;20010;-71
2023/08/09 12:40:45;;;;;;;;;;;;;;;;;;5136963;27;19939;-71
2023/08/09 12:43:11;;;;;;;;;;;;;;;;;;5118662;27;19918;-72
2023/08/09 12:45:37;;;;;;;;;;;;;;;;;;5136371;27;19924;-71
2023/08/09 12:48:04;;;;;;;;;;;;;;;;;;5136821;27;19907;-71
2023/08/09 12:50:29;;;;;;;;;;;;;;;;;;5136798;27;19907;-71
2023/08/09 12:52:55;;;;;;;;;;;;;;;;;;5117891;27;19908;-71
2023/08/09 12:55:22;;;;;;;;;;;;;;;;;;5136866;27;19912;-71
2023/08/09 12:57:48;;;;;;;;;;;;;;;;;;5136730;27;19908;-71
2023/08/09 13:00:15;;;;;;;;;;;;;;;;;;5136214;27;20291;-71
2023/08/09 13:02:41;;;;;;;;;;;;;;;;;;5136538;27;19939;-71
2023/08/09 13:05:08;;;;;;;;;;;;;;;;;;5136610;27;20383;-71
2023/08/09 13:07:34;;;;;;;;;;;;;;;;;;5135151;27;20013;-71
2023/08/09 13:10:00;;;;;;;;;;;;;;;;;;5136291;27;19907;-69
2023/08/09 13:12:26;;;;;;;;;;;;;;;;;;5136335;27;19908;-70
2023/08/09 13:14:52;;;;;;;;;;;;;;;;;;5135793;27;20290;-69
2023/08/09 13:17:18;;;;;;;;;;;;;;;;;;5136238;27;19908;-70
2023/08/09 13:19:44;;;;;;;;;;;;;;;;;;5135692;27;19952;-70
2023/08/09 13:22:10;;;;;;;;;;;;;;;;;;5136526;27;20245;-70
2023/08/09 13:24:36;;;;;;;;;;;;;;;;;;5136018;27;20382;-70
2023/08/09 13:27:03;;;;;;;;;;;;;;;;;;5135646;27;20361;-70
2023/08/09 13:29:29;;;;;;;;;;;;;;;;;;5117622;27;20283;-70
2023/08/09 13:31:55;;;;;;;;;;;;;;;;;;5135955;27;20017;-70
2023/08/09 13:34:21;;;;;;;;;;;;;;;;;;5135805;27;20383;-70
2023/08/09 13:36:47;;;;;;;;;;;;;;;;;;5117400;27;19907;-70
2023/08/09 13:39:13;;;;;;;;;;;;;;;;;;5135857;27;19907;-70
2023/08/09 13:41:39;;;;;;;;;;;;;;;;;;5135345;27;19907;-70
2023/08/09 13:44:05;;;;;;;;;;;;;;;;;;5135810;27;19968;-71
2023/08/09 13:46:33;;;;;;;;;;;;;;;;;;5135824;27;19916;-71
2023/08/09 13:48:58;;;;;;;;;;;;;;;;;;5135148;27;19911;-70
2023/08/09 13:51:24;;;;;;;;;;;;;;;;;;5135543;27;19908;-70
2023/08/09 13:53:52;;;;;;;;;;;;;;;;;;5116967;27;19911;-70
2023/08/09 13:56:18;;;;;;;;;;;;;;;;;;5135096;27;19907;-70
2023/08/09 13:58:44;;;;;;;;;;;;;;;;;;5135362;27;19908;-71
2023/08/09 14:01:10;;;;;;;;;;;;;;;;;;5135319;27;19908;-70
2023/08/09 14:03:36;;;;;;;;;;;;;;;;;;5116628;27;19972;-72
2023/08/09 14:06:02;;;;;;;;;;;;;;;;;;5135316;27;19919;-70
2023/08/09 14:08:28;;;;;;;;;;;;;;;;;;5116930;27;19933;-70
2023/08/09 14:10:54;;;;;;;;;;;;;;;;;;5134823;27;19955;-71
2023/08/09 14:13:19;;;;;;;;;;;;;;;;;;5135722;27;19998;-70
2023/08/09 14:15:46;;;;;;;;;;;;;;;;;;5135135;27;19914;-71
2023/08/09 14:18:12;;;;;;;;;;;;;;;;;;5134700;27;19966;-71
2023/08/09 14:20:38;;;;;;;;;;;;;;;;;;5134831;27;20002;-71
2023/08/09 14:23:04;;;;;;;;;;;;;;;;;;5134683;27;20367;-71
2023/08/09 14:25:30;;;;;;;;;;;;;;;;;;5134945;27;19921;-71
2023/08/09 14:27:56;;;;;;;;;;;;;;;;;;5134981;27;20419;-71
2023/08/09 14:30:22;;;;;;;;;;;;;;;;;;5134511;27;19915;-71
2023/08/09 14:32:48;;;;;;;;;;;;;;;;;;5135129;27;20391;-71
2023/08/09 14:35:14;;;;;;;;;;;;;;;;;;5116452;27;20415;-71
2023/08/09 14:37:40;;;;;;;;;;;;;;;;;;5134942;27;20252;-71
2023/08/09 14:40:09;;;;;;;;;;;;;;;;;;5135048;27;19908;-71
2023/08/09 14:42:35;;;;;;;;;;;;;;;;;;5134839;27;19908;-71
2023/08/09 14:45:01;;;;;;;;;;;;;;;;;;5134486;28;20379;-70
2023/08/09 14:47:28;;;;;;;;;;;;;;;;;;5135424;28;20321;-70
2023/08/09 14:49:54;;;;;;;;;;;;;;;;;;5135257;28;19937;-70
2023/08/09 14:52:21;;;;;;;;;;;;;;;;;;5134943;28;19908;-70
2023/08/09 14:54:47;;;;;;;;;;;;;;;;;;5116834;28;19988;-70
2023/08/09 14:57:13;;;;;;;;;;;;;;;;;;5135041;28;19908;-70
2023/08/09 14:59:39;;;;;;;;;;;;;;;;;;5134390;28;19907;-70
2023/08/09 15:02:05;;;;;;;;;;;;;;;;;;5135101;28;19914;-70
2023/08/09 15:04:31;;;;;;;;;;;;;;;;;;5134568;28;20340;-70
2023/08/09 15:06:57;;;;;;;;;;;;;;;;;;5134327;28;20307;-71
2023/08/09 15:09:23;;;;;;;;;;;;;;;;;;5134514;28;19914;-70
2023/08/09 15:11:49;;;;;;;;;;;;;;;;;;5134527;28;20367;-70
2023/08/09 15:14:15;;;;;;;;;;;;;;;;;;5115623;28;19908;-70
2023/08/09 15:16:41;;;;;;;;;;;;;;;;;;5134973;28;20276;-70
2023/08/09 15:19:07;;;;;;;;;;;;;;;;;;5134571;28;20279;-70
2023/08/09 15:21:33;;;;;;;;;;;;;;;;;;5134051;28;19907;-70
2023/08/09 15:23:59;;;;;;;;;;;;;;;;;;5134495;28;20328;-70
2023/08/09 15:26:25;;;;;;;;;;;;;;;;;;5134137;28;19911;-70
2023/08/09 15:28:51;;;;;;;;;;;;;;;;;;5134355;28;20431;-70
2023/08/09 15:31:17;;;;;;;;;;;;;;;;;;5135802;27;19946;-70
2023/08/09 15:33:43;;;;;;;;;;;;;;;;;;5137881;27;19915;-70
2023/08/09 15:36:09;;;;;;;;;;;;;;;;;;5138242;27;19908;-70
2023/08/09 15:38:35;;;;;;;;;;;;;;;;;;5138163;27;19907;-70
2023/08/09 15:41:02;;;;;;;;;;;;;;;;;;5137588;27;19963;-69
2023/08/09 15:43:27;;;;;;;;;;;;;;;;;;5138306;27;20343;-69
2023/08/09 15:45:53;;;;;;;;;;;;;;;;;;5137855;27;20359;-70
2023/08/09 15:48:20;;;;;;;;;;;;;;;;;;5119138;27;19907;-71
2023/08/09 15:50:46;;;;;;;;;;;;;;;;;;5138136;27;19907;-69
2023/08/09 15:53:12;;;;;;;;;;;;;;;;;;5137862;27;20260;-69
2023/08/09 15:55:38;;;;;;;;;;;;;;;;;;5137423;27;20286;-69
2023/08/09 15:58:04;;;;;;;;;;;;;;;;;;5137775;27;19943;-69
2023/08/09 16:00:31;;;;;;;;;;;;;;;;;;5119221;27;19976;-69
2023/08/09 16:02:57;;;;;;;;;;;;;;;;;;5137401;27;19914;-71
2023/08/09 16:05:25;;;;;;;;;;;;;;;;;;5137567;27;19968;-69
2023/08/09 16:07:52;;;;;;;;;;;;;;;;;;5137562;27;19913;-70
2023/08/09 16:10:18;;;;;;;;;;;;;;;;;;5137174;27;19908;-70
2023/08/09 16:12:44;;;;;;;;;;;;;;;;;;5137541;27;19915;-70
2023/08/09 16:15:10;;;;;;;;;;;;;;;;;;5137516;27;19907;-70
2023/08/09 16:17:36;;;;;;;;;;;;;;;;;;5118706;27;19914;-71
2023/08/09 16:20:04;;;;;;;;;;;;;;;;;;5118985;27;19919;-71
2023/08/09 16:22:30;;;;;;;;;;;;;;;;;;5137617;27;20391;-68
2023/08/09 16:24:56;;;;;;;;;;;;;;;;;;5136803;27;19919;-70
2023/08/09 16:27:22;;;;;;;;;;;;;;;;;;5137278;27;19952;-71
2023/08/09 16:29:48;;;;;;;;;;;;;;;;;;5136816;27;19915;-72
2023/08/09 16:32:14;;;;;;;;;;;;;;;;;;5137155;27;19998;-70
2023/08/09 16:34:40;;;;;;;;;;;;;;;;;;5137047;27;19915;-70
2023/08/09 16:37:06;;;;;;;;;;;;;;;;;;5136827;27;19913;-69
2023/08/09 16:39:32;;;;;;;;;;;;;;;;;;5137019;27;19915;-70
2023/08/09 16:41:58;;;;;;;;;;;;;;;;;;5136857;27;19918;-69
2023/08/09 16:44:24;;;;;;;;;;;;;;;;;;5117812;27;19972;-71
2023/08/09 16:46:50;;;;;;;;;;;;;;;;;;5137475;27;19956;-70
2023/08/09 16:49:16;;;;;;;;;;;;;;;;;;5118433;27;20071;-70
2023/08/09 16:51:42;;;;;;;;;;;;;;;;;;5136330;27;19911;-70
2023/08/09 16:54:08;;;;;;;;;;;;;;;;;;5118322;27;19915;-70
2023/08/09 16:56:35;;;;;;;;;;;;;;;;;;5136614;27;19988;-70
2023/08/09 16:59:01;;;;;;;;;;;;;;;;;;5136171;27;19914;-70
2023/08/09 17:01:26;;;;;;;;;;;;;;;;;;5136667;27;19908;-71
2023/08/09 17:03:53;;;;;;;;;;;;;;;;;;5136561;27;19998;-71
2023/08/09 17:06:19;;;;;;;;;;;;;;;;;;5136082;27;20333;-71
2023/08/09 17:08:45;;;;;;;;;;;;;;;;;;5118069;27;19908;-71
2023/08/09 17:11:11;;;;;;;;;;;;;;;;;;5118025;27;19946;-69
2023/08/09 17:13:37;;;;;;;;;;;;;;;;;;5117477;27;20346;-69
2023/08/09 17:16:03;;;;;;;;;;;;;;;;;;5117728;27;19956;-70
2023/08/09 17:18:29;;;;;;;;;;;;;;;;;;5136296;27;20056;-70
2023/08/09 17:20:55;;;;;;;;;;;;;;;;;;5135653;27;20004;-70
2023/08/09 17:23:22;;;;;;;;;;;;;;;;;;5117763;27;20487;-70
2023/08/09 17:25:48;;;;;;;;;;;;;;;;;;5136450;27;19916;-71
2023/08/09 17:28:14;;;;;;;;;;;;;;;;;;5117283;27;19914;-70
2023/08/09 17:30:40;;;;;;;;;;;;;;;;;;5135953;27;19950;-70
2023/08/09 17:33:06;;;;;;;;;;;;;;;;;;5135572;27;19908;-69
2023/08/09 17:35:32;;;;;;;;;;;;;;;;;;5135805;27;19908;-71
2023/08/09 17:37:58;;;;;;;;;;;;;;;;;;5136308;27;19911;-70
2023/08/09 17:40:24;;;;;;;;;;;;;;;;;;5135834;27;20413;-70
2023/08/09 17:42:50;;;;;;;;;;;;;;;;;;5135804;27;20351;-71
2023/08/09 17:45:16;;;;;;;;;;;;;;;;;;5135453;27;19926;-70
2023/08/09 17:47:43;;;;;;;;;;;;;;;;;;5135306;27;19911;-70
2023/08/09 17:50:09;;;;;;;;;;;;;;;;;;5117241;27;19921;-71
2023/08/09 17:52:35;;;;;;;;;;;;;;;;;;5117105;27;19908;-70
2023/08/09 17:55:01;;;;;;;;;;;;;;;;;;5134572;27;19911;-71
2023/08/09 17:57:27;;;;;;;;;;;;;;;;;;5117128;27;19914;-69
2023/08/09 17:59:53;;;;;;;;;;;;;;;;;;5135760;27;20371;-69
2023/08/09 18:02:19;;;;;;;;;;;;;;;;;;5116614;27;20406;-69
2023/08/09 18:04:45;;;;;;;;;;;;;;;;;;5135248;27;20367;-69
2023/08/09 18:07:11;;;;;;;;;;;;;;;;;;5135206;27;19912;-69
2023/08/09 18:09:37;;;;;;;;;;;;;;;;;;5134857;27;19930;-69
2023/08/09 18:12:03;;;;;;;;;;;;;;;;;;5135138;27;19914;-70
2023/08/09 18:14:32;;;;;;;;;;;;;;;;;;5135252;27;19907;-70
2023/08/09 18:16:58;;;;;;;;;;;;;;;;;;5134706;27;19972;-70
2023/08/09 18:19:24;;;;;;;;;;;;;;;;;;5135163;27;19942;-70
2023/08/09 18:23:07;;;;;;;;;;;;;;;;;;5091000;28;20364;-69
2023/08/09 18:25:33;;;;;;;;;;;;;;;;;;5090068;28;20000;-69
2023/08/09 18:29:56;;;;;;;;;;;;;;;;;;5091458;28;19917;-70
2023/08/09 18:32:22;;;;;;;;;;;;;;;;;;5091575;28;20007;-70
2023/08/09 18:35:56;;;;;;;;;;;;;;;;;;5112144;27;19916;-70
2023/08/09 18:38:22;;;;;;;;;;;;;;;;;;5111370;28;19924;-71
2023/08/09 18:40:48;;;;;;;;;;;;;;;;;;5110249;28;19908;-70
2023/08/09 18:44:26;;;;;;;;;;;;;;;;;;5091473;27;19916;-69
2023/08/09 18:46:52;;;;;;;;;;;;;;;;;;5091391;28;20432;-70
2023/08/09 18:49:18;;;;;;;;;;;;;;;;;;5091264;28;19908;-69
2023/08/09 18:52:19;;;;;;;;;;;;;;;;;;5091015;27;19922;-70
2023/08/09 18:54:45;;;;;;;;;;;;;;;;;;5091341;28;19916;-70
2023/08/09 18:57:11;;;;;;;;;;;;;;;;;;5091207;28;19908;-71
2023/08/09 18:59:37;;;;;;;;;;;;;;;;;;5089246;28;19909;-70
2023/08/09 19:02:03;;;;;;;;;;;;;;;;;;5091151;28;19943;-70
2023/08/09 19:04:29;;;;;;;;;;;;;;;;;;5089478;28;19919;-71